OPKC/KHI METAR and TAF weather

Enter ICAO airport designator
Station Type Date Time Source
OPKC METAR 2019/12/14 16:55 UTC NOAA

OPKC 141655Z 06006KT 5000 FU NSC 19/12 Q1019 NOSIG


Station Type Date Time Source
OPKC Decoded METAR 2019/12/14 16:55 UTC NOAA

Karachi Airport, Pakistan (OPKC) 24-54N 067-08E 22M
Dec 14, 2019 - 11:55 AM EST / 2019.12.14 1655 UTC
Wind: from the ENE (060 degrees) at 7 MPH (6 KT):0
Visibility: 3 mile(s):0
Weather: smoke
Temperature: 66 F (19 C)
Dew Point: 53 F (12 C)
Relative Humidity: 63%
Pressure (altimeter): 30.09 in. Hg (1019 hPa)
ob: OPKC 141655Z 06006KT 5000 FU NSC 19/12 Q1019 NOSIG
cycle: 17

Station Type Date Time Source
OPKC TAF 2019/12/14 18:27 UTC NOAA

TAF OPKC 141600Z 1418/1524 03007KT 4000 FU NSC
TEMPO 1500/1504 VRB03KT 1500 BR SCT030
FM150600 05005G15KT 5000 HZ NSC

Example: see airport list